Home > Products > Valid Products > MTR

000
SAUS44 KLZK 301006
MTRMWT
SPECI KMWT 301005Z AUTO 00000KT 10SM SCT025 20/19 A2994 RMK AO2
T02000189





000
SAUS44 KLZK 300954
MTRMWT
METAR KMWT 300953Z AUTO 00000KT 10SM BKN023 20/19 A2993 RMK AO2
SLP125 T02000189





000
SAUS44 KLZK 300854
MTRMWT
METAR KMWT 300853Z AUTO 00000KT 10SM BKN027 BKN033 OVC043 20/19
A2992 RMK AO2 RAE31 SLP123 P0000 60004 T02000189 55000





000
SAUS44 KLZK 300854
MTRMWT
METAR KMWT 300853Z AUTO 00000KT 10SM BKN027 BKN033 OVC043 20/19
A2992 RMK AO2 RAE31 SLP123 P0000 60004 T02000189 55000





000
SAUS44 KLZK 300849
MTRMWT
SPECI KMWT 300848Z AUTO 00000KT 10SM FEW023 BKN035 OVC043 20/19
A2992 RMK AO2 RAE31 P0000





000
SAUS44 KLZK 300816
MTRMWT
SPECI KMWT 300815Z AUTO VRB03KT 10SM -RA SCT010 BKN026 OVC110 20/19
A2992 RMK AO2 P0000 T02000189





000
SAUS44 KLZK 300754
MTRMWT
METAR KMWT 300753Z AUTO 00000KT 9SM -RA OVC110 20/19 A2992 RMK AO2
SLP123 P0004 T02000189





000
SAUS44 KLZK 300707
MTRMWT
SPECI KMWT 300705Z AUTO VRB04KT 8SM -RA SCT018 OVC085 20/19 A2992
RMK AO2 P0001 T02000189





000
SAUS44 KLZK 300654
MTRMWT
METAR KMWT 300653Z AUTO 00000KT 10SM -RA BKN018 BKN039 OVC080 20/19
A2992 RMK AO2 RAB52 SLP122 P0000 T02000189





000
SAUS44 KLZK 300654
MTRMWT
METAR KMWT 300653Z AUTO 00000KT 10SM -RA BKN018 BKN039 OVC080 20/19
A2992 RMK AO2 RAB52 SLP122 P0000 T02000189





000
SAUS44 KLZK 300554
MTRMWT
METAR KMWT 300553Z AUTO 00000KT 10SM OVC018 21/19 A2992 RMK AO2
SLP120 60023 T02060189 10206 20200 402780183 53008





000
SAUS44 KLZK 300554
MTRMWT
METAR KMWT 300553Z AUTO 00000KT 10SM OVC018 21/19 A2992 RMK AO2
SLP120 60023 T02060189 10206 20200 402780183 53008





000
SAUS44 KLZK 300515
MTRMWT
SPECI KMWT 300514Z AUTO 00000KT 9SM FEW002 OVC019 20/19 A2990 RMK
AO2 T02000194





000
SAUS44 KLZK 300515
MTRMWT
SPECI KMWT 300514Z AUTO 00000KT 9SM FEW002 OVC019 20/19 A2990 RMK
AO2 T02000194





000
SAUS44 KLZK 300501
MTRMWT
SPECI KMWT 300501Z AUTO 00000KT 10SM FEW002 BKN013 OVC021 20/19
A2990 RMK AO2 T02000194





000
SAUS44 KLZK 300454
MTRMWT
METAR KMWT 300453Z AUTO 00000KT 10SM BKN013 OVC019 20/19 A2989 RMK
AO2 RAE24 SLP113 P0001 T02000194





000
SAUS44 KLZK 300414
MTRMWT
SPECI KMWT 300412Z AUTO 00000KT 5SM -RA BR SCT004 OVC011 20/19 A2989
RMK AO2 P0001 T02000189





000
SAUS44 KLZK 300354
MTRMWT
METAR KMWT 300353Z AUTO 00000KT 6SM -RA BR OVC011 20/19 A2989 RMK
AO2 RAB29 SLP112 P0000 T02000194





000
SAUS44 KLZK 300334
MTRMWT
SPECI KMWT 300333Z AUTO 00000KT 7SM -RA BKN013 OVC019 21/19 A2989
RMK AO2 RAB29 P0000 T02060194





000
SAUS44 KLZK 300334
MTRMWT
SPECI KMWT 300333Z AUTO 00000KT 7SM -RA BKN013 OVC019 21/19 A2989
RMK AO2 RAB29 P0000 T02060194





000
SAUS44 KLZK 300254
MTRMWT
METAR KMWT 300253Z AUTO 00000KT 10SM SCT013 BKN027 BKN070 20/19
A2989 RMK AO2 RAE05 SLP114 P0000 60022 T02000194 58001





000
SAUS44 KLZK 300250
MTRMWT
SPECI KMWT 300249Z AUTO 00000KT 10SM SCT013 BKN030 OVC080 20/19
A2990 RMK AO2 RAE05 P0000





000
SAUS44 KLZK 300230
MTRMWT
SPECI KMWT 300229Z AUTO 00000KT 10SM BKN013 BKN047 OVC085 20/19
A2990 RMK AO2 RAE05 P0000 T02000189





000
SAUS44 KLZK 300213
MTRMWT
SPECI KMWT 300212Z AUTO 13004KT 10SM SCT013 BKN045 BKN070 20/19
A2990 RMK AO2 RAE05 P0000 T02000189





000
SAUS44 KLZK 300154
MTRMWT
METAR KMWT 300153Z AUTO VRB03KT 7SM -RA BKN011 BKN050 OVC090 20/19
A2991 RMK AO2 SLP119 P0009 T02000189





000
SAUS44 KLZK 300147
MTRMWT
SPECI KMWT 300146Z AUTO 10003KT 5SM RA BR BKN011 BKN050 OVC085 20/19
A2990 RMK AO2 P0007 T02000189





000
SAUS44 KLZK 300140
MTRMWT
SPECI KMWT 300139Z AUTO 00000KT 6SM RA BR BKN009 BKN013 20/19 A2990
RMK AO2 P0005 T02000189





000
SAUS44 KLZK 300131
MTRMWT
SPECI KMWT 300130Z AUTO 00000KT 10SM -RA BKN013 BKN110 20/19 A2990
RMK AO2 P0003 T02000189





000
SAUS44 KLZK 300131
MTRMWT
SPECI KMWT 300130Z AUTO 00000KT 10SM -RA BKN013 BKN110 20/19 A2990
RMK AO2 P0003 T02000189





000
SAUS44 KLZK 300106
MTRMWT
SPECI KMWT 300104Z AUTO 13005KT 9SM -RA FEW009 BKN110 20/19 A2990
RMK AO2 P0001 T02000194





000
SAUS44 KLZK 300054
MTRMWT
METAR KMWT 300053Z AUTO 10003KT 10SM -RA FEW050 SCT100 BKN120 21/19
A2990 RMK AO2 SLP115 P0013 T02060194 $





000
SAUS44 KLZK 300054
MTRMWT
METAR KMWT 300053Z AUTO 10003KT 10SM -RA FEW050 SCT100 BKN120 21/19
A2990 RMK AO2 SLP115 P0013 T02060194 $





000
SAUS44 KLZK 300025
MTRMWT
SPECI KMWT 300024Z AUTO 00000KT 6SM -RA BR SCT013 BKN046 OVC070
20/19 A2990 RMK AO2 P0011 T02000189





000
SAUS44 KLZK 300025
MTRMWT
SPECI KMWT 300024Z AUTO 00000KT 6SM -RA BR SCT013 BKN046 OVC070
20/19 A2990 RMK AO2 P0011 T02000189





000
SAUS44 KLZK 300011
MTRMWT
SPECI KMWT 300010Z AUTO 00000KT 8SM -RA BKN013 BKN030 OVC048 20/19
A2992 RMK AO2 P0009 T02000194





000
SAUS44 KLZK 300011
MTRMWT
SPECI KMWT 300010Z AUTO 00000KT 8SM -RA BKN013 BKN030 OVC048 20/19
A2992 RMK AO2 P0009 T02000194





000
SAUS44 KLZK 300004
MTRMWT
SPECI KMWT 300003Z AUTO 00000KT 2 1/2SM -RA BR BKN011 BKN023 OVC032
20/19 A2992 RMK AO2 P0008 T02000194





000
SAUS44 KLZK 292354
MTRMWT
METAR KMWT 292353Z AUTO 00000KT 1/2SM +RA FG SCT013 BKN025 OVC090
20/19 A2991 RMK AO2 SLP120 P0013 60064 T02000189 10272 20200 55001





000
SAUS44 KLZK 292354
MTRMWT
METAR KMWT 292353Z AUTO 00000KT 1/2SM +RA FG SCT013 BKN025 OVC090
20/19 A2991 RMK AO2 SLP120 P0013 60064 T02000189 10272 20200 55001





000
SAUS44 KLZK 292351
MTRMWT
SPECI KMWT 292350Z AUTO 00000KT 3/4SM +RA BR FEW015 BKN029 OVC085
20/19 A2991 RMK AO2 P0005





000
SAUS44 KLZK 292351
MTRMWT
SPECI KMWT 292350Z AUTO 00000KT 3/4SM +RA BR FEW015 BKN029 OVC085
20/19 A2991 RMK AO2 P0005





000
SAUS44 KLZK 292254
MTRMWT
METAR KMWT 292253Z AUTO 00000KT 4SM -RA BR FEW044 BKN075 OVC110
21/19 A2988 RMK AO2 RAB06 PRESFR SLP109 P0027 T02060189





000
SAUS44 KLZK 292240
MTRMWT
SPECI KMWT 292239Z AUTO 00000KT 3SM RA BR SCT033 BKN080 21/19 A2992
RMK AO2 RAB06 P0023 T02060189





000
SAUS44 KLZK 292234
MTRMWT
SPECI KMWT 292233Z AUTO VRB03KT 1 1/4SM RA BR FEW016 BKN035 OVC075
21/19 A2992 RMK AO2 RAB06 P0022 T02060189





000
SAUS44 KLZK 292227
MTRMWT
SPECI KMWT 292226Z AUTO VRB05KT 3/4SM +RA BR SCT020 OVC036 21/19
A2993 RMK AO2 RAB06 PRESRR P0016 T02060189





000
SAUS44 KLZK 292218
MTRMWT
SPECI KMWT 292217Z AUTO VRB06KT 1 1/4SM -RA BR FEW014 BKN033 OVC070
21/19 A2991 RMK AO2 RAB06 P0000 T02110189





000
SAUS44 KLZK 292154
MTRMWT
METAR KMWT 292153Z AUTO VRB05KT 10SM FEW026 SCT050 SCT060 26/23
A2990 RMK AO2 RAB00E22 SLP116 P0000 T02560233





000
SAUS44 KLZK 292054
MTRMWT
METAR KMWT 292053Z AUTO 12007KT 080V140 10SM FEW022 SCT031 BKN050
26/22 A2991 RMK AO2 RAE14 SLP120 P0013 60024 T02610222 58019





000
SAUS44 KLZK 292054
MTRMWT
METAR KMWT 292053Z AUTO 12007KT 080V140 10SM FEW022 SCT031 BKN050
26/22 A2991 RMK AO2 RAE14 SLP120 P0013 60024 T02610222 58019





000
SAUS44 KLZK 292036
MTRMWT
SPECI KMWT 292035Z AUTO 10SM SCT024 BKN029 BKN034 26/23 A2992 RMK
AO2 RAE14 P0013 T02610233





000
SAUS44 KLZK 292013
MTRMWT
SPECI KMWT 292012Z AUTO 16003KT 3SM -RA BR SCT024 BKN037 OVC050
24/23 A2994 RMK AO2 P0013 T02440228





000
SAUS44 KLZK 291954
MTRMWT
METAR KMWT 291953Z AUTO VRB04KT 1 3/4SM -RA BR FEW027 BKN042 OVC090
24/22 A2995 RMK AO2 RAB28 SLP133 P0011 T02440222





000
SAUS44 KLZK 291948
MTRMWT
SPECI KMWT 291947Z AUTO VRB03KT 1 1/2SM +RA FEW029 SCT040 BKN055
25/22 A2994 RMK AO2 VIS 3/4V4 RAB28 P0004





000
SAUS44 KLZK 291854
MTRMWT
METAR KMWT 291853Z AUTO 14006KT 10SM FEW023 SCT030 27/22 A2996 RMK
AO2 SLP135 T02720217





000
SAUS44 KLZK 291754
MTRMWT
METAR KMWT 291753Z AUTO 14007KT 120V190 10SM CLR 27/21 A2997 RMK AO2
SLP138 T02720211 10272 20206 56010





000
SAUS44 KLZK 291657
MTRMWT
METAR KMWT 291653Z AUTO 14006KT 10SM FEW016 26/21 A2997 RMK AO2
SLP139 T02610206





000
SAUS44 KLZK 291554
MTRMWT
METAR KMWT 291553Z AUTO 12005KT 10SM FEW012 24/21 A2999 RMK AO2
SLP148 T02440211





000
SAUS44 KLZK 291530
MTRMWT
SPECI KMWT 291529Z AUTO 09004KT 10SM SCT010 24/21 A3000 RMK AO2
T02390206





000
SAUS44 KLZK 291514
MTRMWT
SPECI KMWT 291513Z AUTO 00000KT 10SM BKN010 24/21 A3000 RMK AO2
T02390206





000
SAUS44 KLZK 291454
MTRMWT
METAR KMWT 291453Z AUTO 12004KT 10SM SCT012 24/21 A3000 RMK AO2
SLP150 T02390211 50000





000
SAUS44 KLZK 291355
MTRMWT
METAR KMWT 291353Z AUTO 10003KT 10SM SCT033 23/21 A3001 RMK AO2
SLP152 T02330206





000
SAUS44 KLZK 291355
MTRMWT
METAR KMWT 291353Z AUTO 10003KT 10SM SCT033 23/21 A3001 RMK AO2
SLP152 T02330206





000
SAUS44 KLZK 291313
MTRMWT
SPECI KMWT 291312Z AUTO 00000KT 9SM SCT014 SCT034 BKN044 23/21 A3000
RMK AO2 T02280211





000
SAUS44 KLZK 291255
MTRMWT
METAR KMWT 291253Z AUTO 00000KT 10SM OVC014 22/21 A3001 RMK AO2
SLP152 T02220206





000
SAUS44 KLZK 291255
MTRMWT
METAR KMWT 291253Z AUTO 00000KT 10SM OVC014 22/21 A3001 RMK AO2
SLP152 T02220206





000
SAUS44 KLZK 291243
MTRMWT
SPECI KMWT 291242Z AUTO 00000KT 10SM OVC014 22/21 A3001 RMK AO2
T02170206





000
SAUS44 KLZK 291243
MTRMWT
SPECI KMWT 291242Z AUTO 00000KT 10SM OVC014 22/21 A3001 RMK AO2
T02170206





000
SAUS44 KLZK 291217
MTRMWT
SPECI KMWT 291216Z AUTO 00000KT 10SM BKN016 OVC080 22/20 A3000 RMK
AO2 T02170200





000
SAUS44 KLZK 291155
MTRMWT
METAR KMWT 291153Z AUTO 00000KT 7SM FEW070 BKN085 21/19 A3000 RMK
AO2 SLP151 70055 T02060194 10206 20183 53006





000
SAUS44 KLZK 291155
MTRMWT
METAR KMWT 291153Z AUTO 00000KT 7SM FEW070 BKN085 21/19 A3000 RMK
AO2 SLP151 70055 T02060194 10206 20183 53006





000
SAUS44 KLZK 291055
MTRMWT
METAR KMWT 291053Z AUTO 00000KT 9SM FEW032 BKN060 20/19 A2999 RMK
AO2 SLP147 T02000189





000
SAUS44 KLZK 290955
MTRMWT
METAR KMWT 290953Z AUTO 12003KT 10SM FEW055 SCT080 20/18 A2997 RMK
AO2 SLP141 T02000183





000
SAUS44 KLZK 290855
MTRMWT
METAR KMWT 290853Z AUTO 00000KT 7SM FEW002 BKN075 18/18 A2998 RMK
AO2 SLP145 T01830178 56007





000
SAUS44 KLZK 290755
MTRMWT
METAR KMWT 290753Z AUTO 00000KT 9SM BKN065 18/17 A2999 RMK AO2
SLP149 T01830172





000
SAUS44 KLZK 290706
MTRMWT
SPECI KMWT 290705Z AUTO 00000KT 9SM FEW007 OVC060 18/17 A3000 RMK
AO2 T01830172





000
SAUS44 KLZK 290706
MTRMWT
SPECI KMWT 290705Z AUTO 00000KT 9SM FEW007 OVC060 18/17 A3000 RMK
AO2 T01830172





000
SAUS44 KLZK 290655
MTRMWT
METAR KMWT 290653Z AUTO 00000KT 9SM BKN060 18/18 A3000 RMK AO2
SLP154 T01830178





000
SAUS44 KLZK 290555
MTRMWT
METAR KMWT 290553Z AUTO 00000KT 7SM CLR 18/18 A3002 RMK AO2 SLP158
T01830178 10217 20183 402780183 58007





000
SAUS44 KLZK 290455
MTRMWT
METAR KMWT 290453Z AUTO 00000KT 7SM CLR 19/18 A3003 RMK AO2 SLP158
T01890178





000
SAUS44 KLZK 290455
MTRMWT
METAR KMWT 290453Z AUTO 00000KT 7SM CLR 19/18 A3003 RMK AO2 SLP158
T01890178





000
SAUS44 KLZK 290354
MTRMWT
METAR KMWT 290353Z AUTO 00000KT 10SM CLR 19/18 A3004 RMK AO2 SLP161
T01890178





000
SAUS44 KLZK 290255
MTRMWT
METAR KMWT 290253Z AUTO 00000KT 10SM CLR 19/18 A3004 RMK AO2 SLP162
T01940183 53009





000
SAUS44 KLZK 290221
MTRMWT
SPECI KMWT 290220Z AUTO 00000KT 10SM FEW009 19/18 A3001 RMK AO2
T01940183





000
SAUS44 KLZK 290154
MTRMWT
METAR KMWT 290153Z AUTO 00000KT 10SM CLR 20/19 A3001 RMK AO2 SLP153
T02000189





000
SAUS44 KLZK 290054
MTRMWT
METAR KMWT 290053Z AUTO 00000KT 10SM CLR 21/19 A3001 RMK AO2 SLP154
T02110194





000
SAUS44 KLZK 282354
MTRMWT
METAR KMWT 282353Z AUTO 00000KT 10SM CLR 22/20 A3001 RMK AO2 SLP155
60016 T02170200 10222 20189 56020





000
SAUS44 KLZK 282354
MTRMWT
METAR KMWT 282353Z AUTO 00000KT 10SM CLR 22/20 A3001 RMK AO2 SLP155
60016 T02170200 10222 20189 56020





000
SAUS44 KLZK 282257 COR
MTRMWT
METAR KMWT 282253Z AUTO 00000KT 10SM CLR 22/19 A3002 RMK AO2 SLP157
T02220189





000
SAUS44 KLZK 282257 COR
MTRMWT
METAR KMWT 282253Z AUTO 00000KT 10SM CLR 22/19 A3002 RMK AO2 SLP157
T02220189





000
SAUS44 KLZK 282155
MTRMWT
METAR KMWT 282153Z AUTO 00000KT 10SM CLR 21/19 A3004 RMK AO2 SLP165
T02060189





000
SAUS44 KLZK 282155
MTRMWT
METAR KMWT 282153Z AUTO 00000KT 10SM CLR 21/19 A3004 RMK AO2 SLP165
T02060189





000
SAUS44 KLZK 282112
MTRMWT
SPECI KMWT 282111Z AUTO 00000KT 10SM FEW004 20/19 A3007 RMK AO2
T02000189





000
SAUS44 KLZK 282112
MTRMWT
SPECI KMWT 282111Z AUTO 00000KT 10SM FEW004 20/19 A3007 RMK AO2
T02000189





000
SAUS44 KLZK 282054
MTRMWT
METAR KMWT 282053Z AUTO 00000KT 10SM FEW120 20/18 A3007 RMK AO2
SLP176 60016 T02000183 56034





000
SAUS44 KLZK 281955
MTRMWT
METAR KMWT 281953Z AUTO 00000KT 10SM FEW055 SCT110 19/18 A3008 RMK
AO2 RAE20 SLP177 P0000 T01940183





000
SAUS44 KLZK 281955
MTRMWT
METAR KMWT 281953Z AUTO 00000KT 10SM FEW055 SCT110 19/18 A3008 RMK
AO2 RAE20 SLP177 P0000 T01940183





000
SAUS44 KLZK 281901
MTRMWT
SPECI KMWT 281900Z AUTO VRB03KT 10SM -RA SCT003 BKN100 BKN120 19/18
A3009 RMK AO2 P0000 T01890178





000
SAUS44 KLZK 281854
MTRMWT
METAR KMWT 281853Z AUTO 11004KT 10SM -RA BKN095 BKN120 19/18 A3009
RMK AO2 PRESFR SLP183 P0016 T01890178





000
SAUS44 KLZK 281815
MTRMWT
SPECI KMWT 281814Z AUTO 00000KT 3SM RA BR SCT049 BKN090 OVC110 19/18
A3013 RMK AO2 PRESFR P0014 T01890178 $





000
SAUS44 KLZK 281755
MTRMWT
METAR KMWT 281753Z AUTO 00000KT 1SM +RA BR 19/18 A3017 RMK AO2
RAB28B50 SLP211 P0039 60039 T01890178 10278 20189 $





000
SAUS44 KLZK 281737
MTRMWT
SPECI KMWT 281735Z AUTO VRB03G19KT 1/2SM +RA FG SCT020 BKN029 BKN036
19/18 A3018 RMK AO2 RAB28 PRESRR P0012 T01940178





000
SAUS44 KLZK 281732
MTRMWT
SPECI KMWT 281731Z AUTO 27011G19KT 240V310 1 1/2SM +RA SCT027 BKN036
BKN045 21/18 A3018 RMK AO2 RAB28 PRESRR P0001 T02110183





000
SAUS44 KLZK 281654
MTRMWT
METAR KMWT 281653Z AUTO 00000KT 10SM FEW028 27/20 A3010 RMK AO2
SLP181 T02720200





000
SAUS44 KLZK 281555
MTRMWT
METAR KMWT 281553Z AUTO VRB04KT 10SM CLR 27/19 A3011 RMK AO2 SLP185
T02670194





000
SAUS44 KLZK 281454
MTRMWT
METAR KMWT 281453Z AUTO VRB05KT 10SM FEW017 26/21 A3010 RMK AO2
SLP182 T02560206 53005





000
SAUS44 KLZK 281354
MTRMWT
METAR KMWT 281353Z AUTO 00000KT 10SM FEW013 25/21 A3009 RMK AO2
SLP178 T02500206





000
SAUS44 KLZK 281254
MTRMWT
METAR KMWT 281253Z AUTO 00000KT 10SM CLR 21/19 A3008 RMK AO2 SLP176
T02110194





000
SAUS44 KLZK 281154
MTRMWT
METAR KMWT 281153Z AUTO 00000KT 6SM BR CLR 19/18 A3008 RMK AO2
SLP177 T01940183 10211 20189 50002





000
SAUS44 KLZK 281054
MTRMWT
METAR KMWT 281053Z AUTO 00000KT 8SM CLR 19/18 A3010 RMK AO2 SLP181
T01890178





000
SAUS44 KLZK 281054
MTRMWT
METAR KMWT 281053Z AUTO 00000KT 8SM CLR 19/18 A3010 RMK AO2 SLP181
T01890178





000
SAUS44 KLZK 280954
MTRMWT
METAR KMWT 280953Z AUTO 00000KT 8SM CLR 20/19 A3009 RMK AO2 SLP177
T02000189





000
SAUS44 KLZK 280854
MTRMWT
METAR KMWT 280853Z AUTO 00000KT 8SM CLR 20/19 A3008 RMK AO2 SLP174
T02000189 55002





000
SAUS44 KLZK 280754
MTRMWT
METAR KMWT 280753Z AUTO 00000KT 9SM CLR 21/19 A3008 RMK AO2 SLP173
T02110189





000
SAUS44 KLZK 280754
MTRMWT
METAR KMWT 280753Z AUTO 00000KT 9SM CLR 21/19 A3008 RMK AO2 SLP173
T02110189





000
SAUS44 KLZK 280654
MTRMWT
METAR KMWT 280653Z AUTO 00000KT 10SM CLR 19/18 A3008 RMK AO2 SLP175
T01940183





000
SAUS44 KLZK 280554
MTRMWT
METAR KMWT 280553Z AUTO 00000KT 9SM CLR 20/19 A3009 RMK AO2 SLP177
T02000189 10283 20200 403000200 51008





000
SAUS44 KLZK 280554
MTRMWT
METAR KMWT 280553Z AUTO 00000KT 9SM CLR 20/19 A3009 RMK AO2 SLP177
T02000189 10283 20200 403000200 51008





000
SAUS44 KLZK 280454
MTRMWT
METAR KMWT 280453Z AUTO 00000KT 10SM CLR 21/19 A3009 RMK AO2 SLP177
T02060194





000
SAUS44 KLZK 280354
MTRMWT
METAR KMWT 280353Z AUTO 00000KT 10SM CLR 21/19 A3008 RMK AO2 SLP175
T02110194





000
SAUS44 KLZK 280354
MTRMWT
METAR KMWT 280353Z AUTO 00000KT 10SM CLR 21/19 A3008 RMK AO2 SLP175
T02110194





000
SAUS44 KLZK 280254
MTRMWT
METAR KMWT 280253Z AUTO 00000KT 10SM CLR 22/20 A3006 RMK AO2 SLP170
T02170200 53012





000
SAUS44 KLZK 280154
MTRMWT
METAR KMWT 280153Z AUTO 00000KT 10SM CLR 23/20 A3004 RMK AO2 SLP162
T02280200





000
SAUS44 KLZK 280054
MTRMWT
METAR KMWT 280053Z AUTO 00000KT 10SM CLR 26/20 A3003 RMK AO2 SLP160
T02560200





000
SAUS44 KLZK 272354
MTRMWT
METAR KMWT 272353Z AUTO 00000KT 10SM CLR 28/20 A3003 RMK AO2 SLP158
T02830200 10300 20278 56011





000
SAUS44 KLZK 272254
MTRMWT
METAR KMWT 272253Z AUTO 00000KT 10SM CLR 29/18 A3004 RMK AO2 SLP160
T02890178





000
SAUS44 KLZK 272154
MTRMWT
METAR KMWT 272153Z AUTO 00000KT 10SM CLR 29/18 A3004 RMK AO2 SLP160
T02940183





000
SAUS44 KLZK 272054
MTRMWT
METAR KMWT 272053Z AUTO VRB04KT 10SM FEW049 29/17 A3006 RMK AO2
SLP167 T02940172 56011





000
SAUS44 KLZK 271954
MTRMWT
METAR KMWT 271953Z AUTO VRB05KT 10SM CLR 29/17 A3006 RMK AO2 SLP167
T02890167





000
SAUS44 KLZK 271954
MTRMWT
METAR KMWT 271953Z AUTO VRB05KT 10SM CLR 29/17 A3006 RMK AO2 SLP167
T02890167





000
SAUS44 KLZK 271854
MTRMWT
METAR KMWT 271853Z AUTO VRB03KT 10SM CLR 29/17 A3008 RMK AO2 SLP172
T02940167





000
SAUS44 KLZK 271754
MTRMWT
METAR KMWT 271753Z AUTO VRB03KT 10SM CLR 28/17 A3010 RMK AO2 SLP179
T02780172 10278 20200 50001





000
SAUS44 KLZK 271754
MTRMWT
METAR KMWT 271753Z AUTO VRB03KT 10SM CLR 28/17 A3010 RMK AO2 SLP179
T02780172 10278 20200 50001





000
SAUS44 KLZK 271654
MTRMWT
METAR KMWT 271653Z AUTO VRB05KT 10SM CLR 27/17 A3010 RMK AO2 SLP182
T02670172





000
SAUS44 KLZK 271554
MTRMWT
METAR KMWT 271553Z AUTO VRB03KT 10SM CLR 25/17 A3011 RMK AO2 SLP184
T02500167





000
SAUS44 KLZK 271454
MTRMWT
METAR KMWT 271453Z AUTO 00000KT 10SM CLR 24/18 A3009 RMK AO2 SLP179
T02440178 51017





000
SAUS44 KLZK 271454
MTRMWT
METAR KMWT 271453Z AUTO 00000KT 10SM CLR 24/18 A3009 RMK AO2 SLP179
T02440178 51017





000
SAUS44 KLZK 271354
MTRMWT
METAR KMWT 271353Z AUTO 00000KT 10SM CLR 23/19 A3008 RMK AO2 SLP178
T02280194





000
SAUS44 KLZK 271354
MTRMWT
METAR KMWT 271353Z AUTO 00000KT 10SM CLR 23/19 A3008 RMK AO2 SLP178
T02280194





000
SAUS44 KLZK 271254
MTRMWT
METAR KMWT 271253Z AUTO 00000KT 10SM CLR 22/20 A3007 RMK AO2 SLP174
T02170200





000
SAUS44 KLZK 271254
MTRMWT
METAR KMWT 271253Z AUTO 00000KT 10SM CLR 22/20 A3007 RMK AO2 SLP174
T02170200





000
SAUS44 KLZK 271154
MTRMWT
METAR KMWT 271153Z AUTO 00000KT 5SM BR CLR 20/19 A3004 RMK AO2
SLP162 T02000189 10239 20200 51009





000
SAUS44 KLZK 271055
MTRMWT
METAR KMWT 271053Z AUTO 00000KT 10SM CLR 22/19 A3003 RMK AO2 SLP159
T02170189





000
SAUS44 KLZK 271055
MTRMWT
METAR KMWT 271053Z AUTO 00000KT 10SM CLR 22/19 A3003 RMK AO2 SLP159
T02170189





000
SAUS44 KLZK 271039
MTRMWT
SPECI KMWT 271038Z AUTO 00000KT 10SM FEW022 FEW028 22/19 A3003 RMK
AO2 T02170194





    US Dept of Commerce
    National Oceanic and Atmospheric Administration
    National Weather Service
    1325 East West Highway
    Silver Spring, MD 20910
    Page Author: NWS Internet Services Team
Disclaimer
Information Quality
Credits
Glossary
Privacy Policy
Freedom of Information Act (FOIA)
About Us
Career Opportunities